createdAt,value
2019-01-27T00:00:49.155Z,0.00
2019-01-27T00:01:49.189Z,0.00
2019-01-27T00:02:49.130Z,0.00
2019-01-27T00:03:49.151Z,0.00
2019-01-27T00:04:49.109Z,0.00
2019-01-27T00:05:49.109Z,0.00
2019-01-27T00:06:49.104Z,0.00
2019-01-27T00:07:49.373Z,0.00
2019-01-27T00:08:49.063Z,0.00
2019-01-27T00:09:49.037Z,0.00
2019-01-27T00:10:49.050Z,0.00
2019-01-27T00:11:49.039Z,0.00
2019-01-27T00:12:49.042Z,0.00
2019-01-27T00:13:49.052Z,0.00
2019-01-27T00:14:48.998Z,0.00
2019-01-27T00:15:48.988Z,0.00
2019-01-27T00:16:48.980Z,0.00
2019-01-27T00:17:48.972Z,0.00
2019-01-27T00:18:48.968Z,0.00
2019-01-27T00:19:48.997Z,0.00
2019-01-27T00:20:48.991Z,0.00
2019-01-27T00:21:48.917Z,0.00
2019-01-27T00:22:48.895Z,0.00
2019-01-27T00:23:48.890Z,0.00
2019-01-27T00:24:48.909Z,0.00
2019-01-27T00:25:48.917Z,0.00
2019-01-27T00:26:48.878Z,0.00
2019-01-27T00:27:48.903Z,0.00
2019-01-27T00:28:48.887Z,0.00
2019-01-27T00:29:48.826Z,0.00
2019-01-27T00:30:48.843Z,0.00
2019-01-27T00:31:48.820Z,0.00
2019-01-27T00:32:48.845Z,0.00
2019-01-27T00:33:48.826Z,0.00
2019-01-27T00:34:48.800Z,0.00
2019-01-27T00:35:48.769Z,0.00
2019-01-27T00:36:48.770Z,0.00
2019-01-27T00:37:48.751Z,0.00
2019-01-27T00:38:48.785Z,0.00
2019-01-27T00:39:48.734Z,0.00
2019-01-27T00:40:48.725Z,0.00
2019-01-27T00:41:48.733Z,0.00
2019-01-27T00:42:48.735Z,0.00
2019-01-27T00:43:48.746Z,0.00
2019-01-27T00:44:48.711Z,0.00
2019-01-27T00:45:48.673Z,0.00
2019-01-27T00:46:48.660Z,0.00
2019-01-27T00:47:48.701Z,0.00
2019-01-27T00:48:48.692Z,0.00
2019-01-27T00:49:48.632Z,0.00
2019-01-27T00:50:48.596Z,0.00
2019-01-27T00:51:48.584Z,0.00
2019-01-27T00:52:48.622Z,0.00
2019-01-27T00:53:50.295Z,0.00
2019-01-27T00:54:48.626Z,0.00
2019-01-27T00:55:48.565Z,0.00
2019-01-27T00:56:48.560Z,0.00
2019-01-27T00:57:48.562Z,0.00
2019-01-27T00:58:48.505Z,0.00
2019-01-27T00:59:48.515Z,0.00
2019-01-27T01:00:48.563Z,0.00
2019-01-27T01:01:48.498Z,0.00
2019-01-27T01:02:48.506Z,0.00
2019-01-27T01:03:48.551Z,0.00
2019-01-27T01:04:48.552Z,0.00
2019-01-27T01:05:48.529Z,0.00
2019-01-27T01:06:48.462Z,0.00
2019-01-27T01:07:48.460Z,0.00
2019-01-27T01:08:48.458Z,0.00
2019-01-27T01:09:48.432Z,0.00
2019-01-27T01:10:48.420Z,0.00
2019-01-27T01:11:48.383Z,0.00
2019-01-27T01:12:48.396Z,0.00
2019-01-27T01:13:48.365Z,0.00
2019-01-27T01:14:48.362Z,0.00
2019-01-27T01:15:48.341Z,0.00
2019-01-27T01:16:48.360Z,0.00
2019-01-27T01:17:48.420Z,0.00
2019-01-27T01:18:48.310Z,0.00
2019-01-27T01:19:48.299Z,0.00
2019-01-27T01:20:48.292Z,0.00
2019-01-27T01:21:48.334Z,0.00
2019-01-27T01:22:48.374Z,0.00
2019-01-27T01:23:48.288Z,0.00
2019-01-27T01:24:48.269Z,0.00
2019-01-27T01:25:48.276Z,0.00
2019-01-27T01:26:48.234Z,0.00
2019-01-27T01:27:48.212Z,0.00
2019-01-27T01:28:48.255Z,0.00
2019-01-27T01:29:48.220Z,0.00
2019-01-27T01:30:48.272Z,0.00
2019-01-27T01:31:48.197Z,0.00
2019-01-27T01:32:48.228Z,0.00
2019-01-27T01:33:48.197Z,0.00
2019-01-27T01:34:48.192Z,0.00
2019-01-27T01:35:48.202Z,0.00
2019-01-27T01:36:48.118Z,0.00
2019-01-27T01:37:48.108Z,0.00
2019-01-27T01:38:48.118Z,0.00
2019-01-27T01:39:48.093Z,0.00
2019-01-27T01:40:48.164Z,0.00
2019-01-27T01:41:48.080Z,0.00
2019-01-27T01:42:48.060Z,0.00
2019-01-27T01:43:48.060Z,0.00
2019-01-27T01:44:48.055Z,0.00
2019-01-27T01:45:48.035Z,0.00
2019-01-27T01:46:48.041Z,0.00
2019-01-27T01:47:48.035Z,0.00
2019-01-27T01:48:48.044Z,0.00
2019-01-27T01:49:47.990Z,0.00
2019-01-27T01:50:47.980Z,0.00
2019-01-27T01:51:48.029Z,0.00
2019-01-27T01:52:47.948Z,0.00
2019-01-27T01:53:47.938Z,0.00
2019-01-27T01:54:47.919Z,0.00
2019-01-27T01:55:47.898Z,0.00
2019-01-27T01:56:47.954Z,0.00
2019-01-27T01:57:47.915Z,0.00
2019-01-27T01:58:47.915Z,0.00
2019-01-27T01:59:47.884Z,0.00
2019-01-27T02:00:47.884Z,0.00
2019-01-27T02:01:47.905Z,0.00
2019-01-27T02:02:47.838Z,0.00
2019-01-27T02:03:47.828Z,0.00
2019-01-27T02:04:47.837Z,0.00
2019-01-27T02:05:47.802Z,0.00
2019-01-27T02:06:47.799Z,0.00
2019-01-27T02:07:47.798Z,0.00
2019-01-27T02:08:47.791Z,0.00
2019-01-27T02:09:47.800Z,0.00
2019-01-27T02:10:47.736Z,0.00
2019-01-27T02:11:47.760Z,0.00
2019-01-27T02:12:47.731Z,0.00
2019-01-27T02:13:47.760Z,0.00
2019-01-27T02:14:47.711Z,0.00
2019-01-27T02:15:47.755Z,0.00
2019-01-27T02:16:47.682Z,0.00
2019-01-27T02:17:47.712Z,0.00
2019-01-27T02:18:47.695Z,0.00
2019-01-27T02:19:47.654Z,0.00
2019-01-27T02:20:47.654Z,0.00
2019-01-27T02:21:47.687Z,0.00
2019-01-27T02:22:47.659Z,0.00
2019-01-27T02:23:47.605Z,0.00
2019-01-27T02:24:47.616Z,0.00
2019-01-27T02:25:47.593Z,0.00
2019-01-27T02:26:47.592Z,0.00
2019-01-27T02:27:47.641Z,0.00
2019-01-27T02:28:47.568Z,0.00
2019-01-27T02:29:47.553Z,0.00
2019-01-27T02:30:47.544Z,0.00
2019-01-27T02:31:47.545Z,0.00
2019-01-27T02:32:47.553Z,0.00
2019-01-27T02:33:47.594Z,0.00
2019-01-27T02:34:47.494Z,0.00
2019-01-27T02:35:47.493Z,0.00
2019-01-27T02:36:47.456Z,0.00
2019-01-27T02:37:47.496Z,0.00
2019-01-27T02:38:47.491Z,0.00
2019-01-27T02:39:47.454Z,0.00
2019-01-27T02:40:47.438Z,0.00
2019-01-27T02:41:47.486Z,0.00
2019-01-27T02:42:47.440Z,0.00
2019-01-27T02:43:47.473Z,0.00
2019-01-27T02:44:47.390Z,0.00
2019-01-27T02:45:47.383Z,0.00
2019-01-27T02:46:47.406Z,0.00
2019-01-27T02:47:47.383Z,0.00
2019-01-27T02:48:47.386Z,0.00
2019-01-27T02:49:47.383Z,0.00
2019-01-27T02:50:47.321Z,0.00
2019-01-27T02:51:47.351Z,0.00
2019-01-27T02:52:47.316Z,0.00
2019-01-27T02:53:47.368Z,0.00
2019-01-27T02:54:47.318Z,0.00
2019-01-27T02:55:47.276Z,0.00
2019-01-27T02:56:47.250Z,0.00
2019-01-27T02:57:47.261Z,0.00
2019-01-27T02:58:47.235Z,0.00
2019-01-27T02:59:47.236Z,0.00
2019-01-27T03:00:47.229Z,0.00
2019-01-27T03:01:47.216Z,0.00
2019-01-27T03:02:47.200Z,0.00
2019-01-27T03:03:47.337Z,0.00
2019-01-27T03:04:47.246Z,0.00
2019-01-27T03:05:47.173Z,0.00
2019-01-27T03:06:47.185Z,0.00
2019-01-27T03:07:47.157Z,0.00
2019-01-27T03:08:47.209Z,0.00
2019-01-27T03:09:47.134Z,0.00
2019-01-27T03:10:47.125Z,0.00
2019-01-27T03:11:47.105Z,0.00
2019-01-27T03:12:47.138Z,0.00
2019-01-27T03:13:47.070Z,0.00
2019-01-27T03:14:47.115Z,0.00
2019-01-27T03:15:47.095Z,0.00
2019-01-27T03:16:47.068Z,0.00
2019-01-27T03:17:47.047Z,0.00
2019-01-27T03:18:47.032Z,0.00
2019-01-27T03:19:47.085Z,0.00
2019-01-27T03:20:47.050Z,0.00
2019-01-27T03:21:47.001Z,0.00
2019-01-27T03:22:46.982Z,0.00
2019-01-27T03:23:46.983Z,0.00
2019-01-27T03:24:47.000Z,0.00
2019-01-27T03:25:47.013Z,0.00
2019-01-27T03:26:46.945Z,0.00
2019-01-27T03:27:46.968Z,0.00
2019-01-27T03:28:46.947Z,0.00
2019-01-27T03:29:46.919Z,0.00
2019-01-27T03:30:46.910Z,0.00
2019-01-27T03:31:46.941Z,0.00
2019-01-27T03:32:46.914Z,0.00
2019-01-27T03:33:46.879Z,0.00
2019-01-27T03:34:46.869Z,0.00
2019-01-27T03:35:46.882Z,0.00
2019-01-27T03:36:46.853Z,0.00
2019-01-27T03:37:46.842Z,0.00
2019-01-27T03:38:46.840Z,0.00
2019-01-27T03:39:46.880Z,0.00
2019-01-27T03:40:46.809Z,0.00
2019-01-27T03:41:46.848Z,0.00
2019-01-27T03:42:46.784Z,0.00
2019-01-27T03:43:46.778Z,0.00
2019-01-27T03:44:46.767Z,0.00
2019-01-27T03:45:46.747Z,0.00
2019-01-27T03:46:46.756Z,0.00
2019-01-27T03:47:46.769Z,0.00
2019-01-27T03:48:46.749Z,0.00
2019-01-27T03:49:46.705Z,0.00
2019-01-27T03:50:46.728Z,0.00
2019-01-27T03:51:46.723Z,0.00
2019-01-27T03:52:46.671Z,0.00
2019-01-27T03:53:46.670Z,0.00
2019-01-27T03:54:46.637Z,0.00
2019-01-27T03:55:46.709Z,0.00
2019-01-27T03:56:46.644Z,0.00
2019-01-27T03:57:46.630Z,0.00
2019-01-27T03:58:46.615Z,0.00
2019-01-27T03:59:46.610Z,0.00
2019-01-27T04:00:46.618Z,0.00
2019-01-27T04:01:46.590Z,0.00
2019-01-27T04:02:46.597Z,0.00
2019-01-27T04:03:46.771Z,0.00
2019-01-27T04:04:46.545Z,0.00
2019-01-27T04:05:46.558Z,0.00
2019-01-27T04:06:46.578Z,0.00
2019-01-27T04:07:46.551Z,0.00
2019-01-27T04:08:46.554Z,0.00
2019-01-27T04:09:46.491Z,0.00
2019-01-27T04:10:46.532Z,0.00
2019-01-27T04:11:46.505Z,0.00
2019-01-27T04:12:46.487Z,0.00
2019-01-27T04:13:46.492Z,0.00
2019-01-27T04:14:46.469Z,0.00
2019-01-27T04:15:46.465Z,0.00
2019-01-27T04:16:46.477Z,0.00
2019-01-27T04:17:46.416Z,0.00
2019-01-27T04:18:46.385Z,0.00
2019-01-27T04:19:46.390Z,0.00
2019-01-27T04:20:46.385Z,0.00
2019-01-27T04:21:46.442Z,0.00
2019-01-27T04:22:46.370Z,0.00
2019-01-27T04:23:46.379Z,0.00
2019-01-27T04:24:46.329Z,0.00
2019-01-27T04:25:46.312Z,0.00
2019-01-27T04:26:46.380Z,0.00
2019-01-27T04:27:46.332Z,0.00
2019-01-27T04:28:46.421Z,0.00
2019-01-27T04:29:46.304Z,0.00
2019-01-27T04:30:46.295Z,0.00
2019-01-27T04:31:46.285Z,0.00
2019-01-27T04:32:46.287Z,0.00
2019-01-27T04:33:46.276Z,0.00
2019-01-27T04:34:46.256Z,0.00
2019-01-27T04:35:46.246Z,0.00
2019-01-27T04:36:46.228Z,0.00
2019-01-27T04:37:46.231Z,0.00
2019-01-27T04:38:46.335Z,0.00
2019-01-27T04:39:46.241Z,0.00
2019-01-27T04:40:46.201Z,0.00
2019-01-27T04:41:46.180Z,0.00
2019-01-27T04:42:46.154Z,0.00
2019-01-27T04:43:46.196Z,0.00
2019-01-27T04:44:46.174Z,0.00
2019-01-27T04:45:46.145Z,0.00
2019-01-27T04:46:46.104Z,0.00
2019-01-27T04:47:46.149Z,0.00
2019-01-27T04:48:46.119Z,0.00
2019-01-27T04:49:46.134Z,0.00
2019-01-27T04:50:46.063Z,0.00
2019-01-27T04:51:46.038Z,0.00
2019-01-27T04:52:46.059Z,0.00
2019-01-27T04:53:46.043Z,0.00
2019-01-27T04:54:46.049Z,0.00
2019-01-27T04:55:46.085Z,0.00
2019-01-27T04:56:46.039Z,0.00
2019-01-27T04:57:46.016Z,0.00
2019-01-27T04:58:46.002Z,0.00
2019-01-27T04:59:46.032Z,0.00
2019-01-27T05:00:46.010Z,0.00
2019-01-27T05:01:45.996Z,0.00
2019-01-27T05:02:45.991Z,0.00
2019-01-27T05:03:45.989Z,0.00
2019-01-27T05:04:45.912Z,0.00
2019-01-27T05:05:45.904Z,0.00
2019-01-27T05:06:45.896Z,0.00
2019-01-27T05:07:45.887Z,0.00
2019-01-27T05:08:45.986Z,0.00
2019-01-27T05:09:45.902Z,0.00
2019-01-27T05:10:45.878Z,0.00
2019-01-27T05:11:45.840Z,0.00
2019-01-27T05:12:45.834Z,0.00
2019-01-27T05:13:45.829Z,0.00
2019-01-27T05:14:45.840Z,0.00
2019-01-27T05:15:45.790Z,0.00
2019-01-27T05:16:45.780Z,0.00
2019-01-27T05:17:45.770Z,0.00
2019-01-27T05:18:45.761Z,0.00
2019-01-27T05:19:45.801Z,0.00
2019-01-27T05:20:45.743Z,0.00
2019-01-27T05:21:45.742Z,0.00
2019-01-27T05:22:45.737Z,0.00
2019-01-27T05:23:45.713Z,0.00
2019-01-27T05:24:45.680Z,0.00
2019-01-27T05:25:45.713Z,0.00
2019-01-27T05:26:45.691Z,0.00
2019-01-27T05:27:45.651Z,0.00
2019-01-27T05:28:45.646Z,0.00
2019-01-27T05:29:45.671Z,0.00
2019-01-27T05:30:45.621Z,0.00
2019-01-27T05:31:45.629Z,0.00
2019-01-27T05:32:45.628Z,0.00
2019-01-27T05:33:45.603Z,0.00
2019-01-27T05:34:45.593Z,0.00
2019-01-27T05:35:45.782Z,0.00
2019-01-27T05:36:47.164Z,0.00
2019-01-27T05:37:45.563Z,0.00
2019-01-27T05:38:45.554Z,0.00
2019-01-27T05:39:45.546Z,0.00
2019-01-27T05:40:45.567Z,0.00
2019-01-27T05:41:45.517Z,0.00
2019-01-27T05:42:45.516Z,0.00
2019-01-27T05:43:45.529Z,0.00
2019-01-27T05:44:45.488Z,0.00
2019-01-27T05:45:45.511Z,0.00
2019-01-27T05:46:45.484Z,0.00
2019-01-27T05:47:45.466Z,0.00
2019-01-27T05:48:45.452Z,0.00
2019-01-27T05:49:45.431Z,0.00
2019-01-27T05:50:45.480Z,0.00
2019-01-27T05:51:45.415Z,0.00
2019-01-27T05:52:45.405Z,0.00
2019-01-27T05:53:45.413Z,0.00
2019-01-27T05:54:45.403Z,0.00
2019-01-27T05:55:45.409Z,0.00
2019-01-27T05:56:45.425Z,0.00
2019-01-27T05:57:45.349Z,0.00
2019-01-27T05:58:45.322Z,0.00
2019-01-27T05:59:45.329Z,0.00
2019-01-27T06:00:45.331Z,0.00
2019-01-27T06:01:45.307Z,0.00
2019-01-27T06:02:45.522Z,0.00
2019-01-27T06:03:45.268Z,0.00
2019-01-27T06:04:45.278Z,0.00
2019-01-27T06:05:45.263Z,0.00
2019-01-27T06:06:45.262Z,0.00
2019-01-27T06:07:45.243Z,0.00
2019-01-27T06:08:45.265Z,0.00
2019-01-27T06:09:45.224Z,0.00
2019-01-27T06:10:45.204Z,0.00
2019-01-27T06:11:45.225Z,0.00
2019-01-27T06:12:45.204Z,0.00
2019-01-27T06:13:45.192Z,0.00
2019-01-27T06:14:45.166Z,0.00
2019-01-27T06:15:45.186Z,0.00
2019-01-27T06:16:45.173Z,0.00
2019-01-27T06:17:45.147Z,0.00
2019-01-27T06:18:45.116Z,0.00
2019-01-27T06:19:45.108Z,0.00
2019-01-27T06:20:45.115Z,0.00
2019-01-27T06:21:45.141Z,0.00
2019-01-27T06:22:45.107Z,0.00
2019-01-27T06:23:45.125Z,0.00
2019-01-27T06:24:45.077Z,0.00
2019-01-27T06:25:45.084Z,0.00
2019-01-27T06:26:45.022Z,0.00
2019-01-27T06:27:45.057Z,0.00
2019-01-27T06:28:45.006Z,0.00
2019-01-27T06:29:45.089Z,0.00
2019-01-27T06:30:45.049Z,0.00
2019-01-27T06:31:45.023Z,0.00
2019-01-27T06:32:44.977Z,0.00
2019-01-27T06:33:44.963Z,0.00
2019-01-27T06:34:44.949Z,0.00
2019-01-27T06:35:44.991Z,0.00
2019-01-27T06:36:45.042Z,0.00
2019-01-27T06:37:44.947Z,0.00
2019-01-27T06:38:44.947Z,0.00
2019-01-27T06:39:44.905Z,0.00
2019-01-27T06:40:44.915Z,0.00
2019-01-27T06:41:44.872Z,0.00
2019-01-27T06:42:44.893Z,0.00
2019-01-27T06:43:44.884Z,0.00
2019-01-27T06:44:44.843Z,0.00
2019-01-27T06:45:44.836Z,0.00
2019-01-27T06:46:44.881Z,0.00
2019-01-27T06:47:44.841Z,0.00
2019-01-27T06:48:44.869Z,0.00
2019-01-27T06:49:44.785Z,0.00
2019-01-27T06:50:44.777Z,0.00
2019-01-27T06:51:44.810Z,0.00
2019-01-27T06:52:44.792Z,0.00
2019-01-27T06:53:44.816Z,0.00
2019-01-27T06:54:44.733Z,0.00
2019-01-27T06:55:44.753Z,0.00
2019-01-27T06:56:44.742Z,0.00
2019-01-27T06:57:44.741Z,0.00
2019-01-27T06:58:44.716Z,0.00
2019-01-27T06:59:44.683Z,0.00
2019-01-27T07:00:44.713Z,0.00
2019-01-27T07:01:44.664Z,0.00
2019-01-27T07:02:44.655Z,0.00
2019-01-27T07:03:44.648Z,0.00
2019-01-27T07:04:44.698Z,0.00
2019-01-27T07:05:44.627Z,0.00
2019-01-27T07:06:44.618Z,0.00
2019-01-27T07:07:44.597Z,0.00
2019-01-27T07:08:44.607Z,0.00
2019-01-27T07:09:44.610Z,0.00
2019-01-27T07:10:44.619Z,0.00
2019-01-27T07:11:44.554Z,0.00
2019-01-27T07:12:44.547Z,0.00
2019-01-27T07:13:44.562Z,0.00
2019-01-27T07:14:44.542Z,0.00
2019-01-27T07:15:44.534Z,0.00
2019-01-27T07:16:44.514Z,0.00
2019-01-27T07:17:44.497Z,0.00
2019-01-27T07:18:44.485Z,0.00
2019-01-27T07:19:44.522Z,0.00
2019-01-27T07:20:44.457Z,0.00
2019-01-27T07:21:44.435Z,0.00
2019-01-27T07:22:44.446Z,0.00
2019-01-27T07:23:44.440Z,0.00
2019-01-27T07:24:44.450Z,0.00
2019-01-27T07:25:44.473Z,0.00
2019-01-27T07:26:44.446Z,0.00
2019-01-27T07:27:44.424Z,0.00
2019-01-27T07:28:44.382Z,0.00
2019-01-27T07:29:44.372Z,0.00
2019-01-27T07:30:44.383Z,0.00
2019-01-27T07:31:44.372Z,0.00
2019-01-27T07:32:44.353Z,0.00
2019-01-27T07:33:44.338Z,0.00
2019-01-27T07:34:44.345Z,0.00
2019-01-27T07:35:44.396Z,0.00
2019-01-27T07:36:44.315Z,0.00
2019-01-27T07:37:44.292Z,0.00
2019-01-27T07:38:44.293Z,0.00
2019-01-27T07:39:44.296Z,5.62
2019-01-27T07:40:44.343Z,5.62
2019-01-27T07:41:44.260Z,5.62
2019-01-27T07:42:44.263Z,5.62
2019-01-27T07:43:44.239Z,5.62
2019-01-27T07:44:44.261Z,5.62
2019-01-27T07:45:44.231Z,5.62
2019-01-27T07:46:44.194Z,5.62
2019-01-27T07:47:44.202Z,5.62
2019-01-27T07:48:44.167Z,5.62
2019-01-27T07:49:44.174Z,5.62
2019-01-27T07:50:44.192Z,5.62
2019-01-27T07:51:44.198Z,5.62
2019-01-27T07:52:44.160Z,5.62
2019-01-27T07:53:44.143Z,5.62
2019-01-27T07:54:44.126Z,0.00
2019-01-27T07:55:44.115Z,0.00
2019-01-27T07:56:44.140Z,5.62
2019-01-27T07:57:44.073Z,5.62
2019-01-27T07:58:44.067Z,5.62
2019-01-27T07:59:44.030Z,5.62
2019-01-27T08:00:44.061Z,5.62
2019-01-27T08:01:44.036Z,5.62
2019-01-27T08:02:44.001Z,5.62
2019-01-27T08:03:44.705Z,5.62
2019-01-27T08:04:44.003Z,5.62
2019-01-27T08:05:44.034Z,5.62
2019-01-27T08:06:43.973Z,5.62
2019-01-27T08:07:43.948Z,5.62
2019-01-27T08:08:43.953Z,5.62
2019-01-27T08:09:43.975Z,5.62
2019-01-27T08:10:43.938Z,5.62
2019-01-27T08:11:43.946Z,5.62
2019-01-27T08:12:43.916Z,5.62
2019-01-27T08:13:43.931Z,5.62
2019-01-27T08:14:43.920Z,5.62
2019-01-27T08:15:43.946Z,5.62
2019-01-27T08:16:43.896Z,5.62
2019-01-27T08:17:43.876Z,5.62
2019-01-27T08:18:43.856Z,5.62
2019-01-27T08:19:43.821Z,5.62
2019-01-27T08:20:43.822Z,11.25
2019-01-27T08:21:43.812Z,11.25
2019-01-27T08:22:43.847Z,11.25
2019-01-27T08:23:43.783Z,11.25
2019-01-27T08:24:43.784Z,11.25
2019-01-27T08:25:43.776Z,11.25
2019-01-27T08:26:43.765Z,11.25
2019-01-27T08:27:43.744Z,11.25
2019-01-27T08:28:43.805Z,11.25
2019-01-27T08:29:43.734Z,11.25
2019-01-27T08:30:43.716Z,11.25
2019-01-27T08:31:43.707Z,11.25
2019-01-27T08:32:43.710Z,16.88
2019-01-27T08:33:43.741Z,16.88
2019-01-27T08:34:43.690Z,16.88
2019-01-27T08:35:43.674Z,16.88
2019-01-27T08:36:43.670Z,16.88
2019-01-27T08:37:43.643Z,16.88
2019-01-27T08:38:43.694Z,16.88
2019-01-27T08:39:43.629Z,16.88
2019-01-27T08:40:43.608Z,16.88
2019-01-27T08:41:43.605Z,16.88
2019-01-27T08:42:43.604Z,16.88
2019-01-27T08:43:43.695Z,16.88
2019-01-27T08:44:43.567Z,16.88
2019-01-27T08:45:43.559Z,16.88
2019-01-27T08:46:43.565Z,16.88
2019-01-27T08:47:43.521Z,16.88
2019-01-27T08:48:43.532Z,11.25
2019-01-27T08:49:43.554Z,11.25
2019-01-27T08:50:43.512Z,16.88
2019-01-27T08:51:43.491Z,16.88
2019-01-27T08:52:43.479Z,16.88
2019-01-27T08:53:43.514Z,16.88
2019-01-27T08:54:43.465Z,16.88
2019-01-27T08:55:43.462Z,16.88
2019-01-27T08:56:43.444Z,16.88
2019-01-27T08:57:43.436Z,16.88
2019-01-27T08:58:43.428Z,16.88
2019-01-27T08:59:43.473Z,16.88
2019-01-27T09:00:43.442Z,16.88
2019-01-27T09:01:43.388Z,16.88
2019-01-27T09:02:43.375Z,16.88
2019-01-27T09:03:43.415Z,16.88
2019-01-27T09:04:43.359Z,22.50
2019-01-27T09:05:43.350Z,22.50
2019-01-27T09:06:43.363Z,22.50
2019-01-27T09:07:43.320Z,22.50
2019-01-27T09:08:43.312Z,16.88
2019-01-27T09:09:43.330Z,16.88
2019-01-27T09:10:43.292Z,16.88
2019-01-27T09:11:43.273Z,16.88
2019-01-27T09:12:43.265Z,16.88
2019-01-27T09:13:43.240Z,16.88
2019-01-27T09:14:43.264Z,16.88
2019-01-27T09:15:43.234Z,16.88
2019-01-27T09:16:43.231Z,16.88
2019-01-27T09:17:43.207Z,11.25
2019-01-27T09:18:43.196Z,11.25
2019-01-27T09:19:43.186Z,16.88
2019-01-27T09:20:43.212Z,16.88
2019-01-27T09:21:43.174Z,16.88
2019-01-27T09:22:43.161Z,16.88
2019-01-27T09:23:43.142Z,16.88
2019-01-27T09:24:43.162Z,16.88
2019-01-27T09:25:43.157Z,16.88
2019-01-27T09:26:43.118Z,11.25
2019-01-27T09:27:43.081Z,11.25
2019-01-27T09:28:43.096Z,11.25
2019-01-27T09:29:43.083Z,16.88
2019-01-27T09:30:43.110Z,11.25
2019-01-27T09:31:43.056Z,11.25
2019-01-27T09:32:43.035Z,11.25
2019-01-27T09:33:43.026Z,11.25
2019-01-27T09:34:43.029Z,11.25
2019-01-27T09:35:43.006Z,11.25
2019-01-27T09:36:43.053Z,11.25
2019-01-27T09:37:43.047Z,5.62
2019-01-27T09:38:42.980Z,5.62
2019-01-27T09:39:42.991Z,5.62
2019-01-27T09:40:42.992Z,5.62
2019-01-27T09:41:43.010Z,5.62
2019-01-27T09:42:42.914Z,5.62
2019-01-27T09:43:42.924Z,5.62
2019-01-27T09:44:42.902Z,11.25
2019-01-27T09:45:42.990Z,11.25
2019-01-27T09:46:42.990Z,11.25
2019-01-27T09:47:42.877Z,11.25
2019-01-27T09:48:42.896Z,11.25
2019-01-27T09:49:42.892Z,11.25
2019-01-27T09:50:42.880Z,11.25
2019-01-27T09:51:42.871Z,5.62
2019-01-27T09:52:42.857Z,5.62
2019-01-27T09:53:42.810Z,5.62
2019-01-27T09:54:42.831Z,11.25
2019-01-27T09:55:44.074Z,11.25
2019-01-27T09:56:42.851Z,11.25
2019-01-27T09:57:42.762Z,11.25
2019-01-27T09:58:42.768Z,11.25
2019-01-27T09:59:42.742Z,11.25
2019-01-27T10:00:42.723Z,11.25
2019-01-27T10:01:42.886Z,11.25
2019-01-27T10:02:42.703Z,11.25
2019-01-27T10:03:42.726Z,11.25
2019-01-27T10:04:42.700Z,11.25
2019-01-27T10:05:42.678Z,11.25
2019-01-27T10:06:43.722Z,11.25
2019-01-27T10:07:43.125Z,11.25
2019-01-27T10:08:42.658Z,16.88
2019-01-27T10:09:42.615Z,11.25
2019-01-27T10:10:42.623Z,11.25
2019-01-27T10:11:42.608Z,11.25
2019-01-27T10:12:42.687Z,11.25
2019-01-27T10:13:42.605Z,11.25
2019-01-27T10:14:42.580Z,11.25
2019-01-27T10:15:42.572Z,11.25
2019-01-27T10:16:42.552Z,11.25
2019-01-27T10:17:42.578Z,11.25
2019-01-27T10:18:42.543Z,11.25
2019-01-27T10:19:42.562Z,11.25
2019-01-27T10:20:42.522Z,11.25
2019-01-27T10:21:42.506Z,11.25
2019-01-27T10:22:42.487Z,11.25
2019-01-27T10:23:42.503Z,11.25
2019-01-27T10:24:42.585Z,11.25
2019-01-27T10:25:42.515Z,16.88
2019-01-27T10:26:42.527Z,16.88
2019-01-27T10:27:42.411Z,11.25
2019-01-27T10:28:42.456Z,11.25
2019-01-27T10:29:42.457Z,11.25
2019-01-27T10:30:42.430Z,11.25
2019-01-27T10:31:42.447Z,11.25
2019-01-27T10:32:42.412Z,11.25
2019-01-27T10:33:42.415Z,16.88
2019-01-27T10:34:42.386Z,16.88
2019-01-27T10:35:42.873Z,28.12
2019-01-27T10:36:42.375Z,28.12
2019-01-27T10:37:42.327Z,28.12
2019-01-27T10:38:42.377Z,28.12
2019-01-27T10:39:42.307Z,22.50
2019-01-27T10:40:42.290Z,22.50
2019-01-27T10:41:42.498Z,22.50
2019-01-27T10:42:42.306Z,16.88
2019-01-27T10:43:42.306Z,16.88
2019-01-27T10:44:42.279Z,11.25
2019-01-27T10:45:42.250Z,5.62
2019-01-27T10:46:42.253Z,5.62
2019-01-27T10:47:42.553Z,5.62
2019-01-27T10:48:42.211Z,11.25
2019-01-27T10:49:42.213Z,11.25
2019-01-27T10:50:42.202Z,11.25
2019-01-27T10:51:42.195Z,16.88
2019-01-27T10:52:42.161Z,16.88
2019-01-27T10:53:42.199Z,16.88
2019-01-27T10:54:42.173Z,16.88
2019-01-27T10:55:42.134Z,16.88
2019-01-27T10:56:42.139Z,16.88
2019-01-27T10:57:42.528Z,11.25
2019-01-27T10:58:42.116Z,16.88
2019-01-27T10:59:42.080Z,11.25
2019-01-27T11:00:42.111Z,16.88
2019-01-27T11:01:42.060Z,11.25
2019-01-27T11:02:42.184Z,16.88
2019-01-27T11:03:42.023Z,16.88
2019-01-27T11:04:42.050Z,16.88
2019-01-27T11:05:42.126Z,22.50
2019-01-27T11:06:42.010Z,22.50
2019-01-27T11:07:41.987Z,28.12
2019-01-27T11:08:41.997Z,28.12
2019-01-27T11:09:42.075Z,22.50
2019-01-27T11:10:41.942Z,16.88
2019-01-27T11:11:41.948Z,22.50
2019-01-27T11:12:41.929Z,28.12
2019-01-27T11:13:41.927Z,22.50
2019-01-27T11:14:41.911Z,16.88
2019-01-27T11:15:41.941Z,16.88
2019-01-27T11:16:41.916Z,22.50
2019-01-27T11:17:41.879Z,22.50
2019-01-27T11:18:41.870Z,22.50
2019-01-27T11:19:41.907Z,22.50
2019-01-27T11:20:41.844Z,22.50
2019-01-27T11:21:41.824Z,22.50
2019-01-27T11:22:41.864Z,22.50
2019-01-27T11:23:41.926Z,22.50
2019-01-27T11:24:41.831Z,28.12
2019-01-27T11:25:41.769Z,22.50
2019-01-27T11:26:41.778Z,16.88
2019-01-27T11:27:41.807Z,16.88
2019-01-27T11:28:41.742Z,16.88
2019-01-27T11:29:41.779Z,16.88
2019-01-27T11:30:41.778Z,11.25
2019-01-27T11:31:41.775Z,11.25
2019-01-27T11:32:41.735Z,11.25
2019-01-27T11:33:41.740Z,11.25
2019-01-27T11:34:41.744Z,11.25
2019-01-27T11:35:41.682Z,11.25
2019-01-27T11:36:41.989Z,11.25
2019-01-27T11:37:41.646Z,11.25
2019-01-27T11:38:41.646Z,11.25
2019-01-27T11:39:41.650Z,11.25
2019-01-27T11:40:41.627Z,16.88
2019-01-27T11:41:41.639Z,11.25
2019-01-27T11:42:41.682Z,11.25
2019-01-27T11:43:41.586Z,16.88
2019-01-27T11:44:41.581Z,16.88
2019-01-27T11:45:41.580Z,16.88
2019-01-27T11:46:41.619Z,22.50
2019-01-27T11:47:41.580Z,28.12
2019-01-27T11:48:41.608Z,28.12
2019-01-27T11:49:41.532Z,16.88
2019-01-27T11:50:41.523Z,16.88
2019-01-27T11:51:41.506Z,22.50
2019-01-27T11:52:41.711Z,28.12
2019-01-27T11:53:41.474Z,28.12
2019-01-27T11:54:41.462Z,33.75
2019-01-27T11:55:41.456Z,39.38
2019-01-27T11:56:41.470Z,39.38
2019-01-27T11:57:41.446Z,33.75
2019-01-27T11:58:41.484Z,33.75
2019-01-27T11:59:41.417Z,33.75
2019-01-27T12:00:41.443Z,33.75
2019-01-27T12:01:41.420Z,33.75
2019-01-27T12:02:46.603Z,33.75
2019-01-27T12:03:42.430Z,33.75
2019-01-27T12:04:41.376Z,33.75
2019-01-27T12:05:41.340Z,33.75
2019-01-27T12:06:41.342Z,28.12
2019-01-27T12:07:41.371Z,28.12
2019-01-27T12:08:41.354Z,28.12
2019-01-27T12:09:41.314Z,33.75
2019-01-27T12:10:41.296Z,39.38
2019-01-27T12:11:41.276Z,39.38
2019-01-27T12:12:41.284Z,33.75
2019-01-27T12:13:41.298Z,33.75
2019-01-27T12:14:41.299Z,28.12
2019-01-27T12:15:41.237Z,28.12
2019-01-27T12:16:41.259Z,28.12
2019-01-27T12:17:41.191Z,28.12
2019-01-27T12:18:41.200Z,22.50
2019-01-27T12:19:41.255Z,16.88
2019-01-27T12:20:41.218Z,22.50
2019-01-27T12:21:41.211Z,22.50
2019-01-27T12:22:41.140Z,16.88
2019-01-27T12:23:41.388Z,16.88
2019-01-27T12:24:41.152Z,22.50
2019-01-27T12:25:41.113Z,16.88
2019-01-27T12:26:41.111Z,16.88
2019-01-27T12:27:41.106Z,16.88
2019-01-27T12:28:41.124Z,16.88
2019-01-27T12:29:41.110Z,16.88
2019-01-27T12:30:41.130Z,16.88
2019-01-27T12:31:41.058Z,16.88
2019-01-27T12:32:41.058Z,11.25
2019-01-27T12:33:41.089Z,11.25
2019-01-27T12:34:41.035Z,5.62
2019-01-27T12:35:40.997Z,5.62
2019-01-27T12:36:41.035Z,11.25
2019-01-27T12:37:41.010Z,11.25
2019-01-27T12:38:40.977Z,11.25
2019-01-27T12:39:40.956Z,11.25
2019-01-27T12:40:40.942Z,22.50
2019-01-27T12:41:40.973Z,16.88
2019-01-27T12:42:40.949Z,16.88
2019-01-27T12:43:40.915Z,11.25
2019-01-27T12:44:40.906Z,16.88
2019-01-27T12:45:40.885Z,16.88
2019-01-27T12:46:40.901Z,16.88
2019-01-27T12:47:40.914Z,28.12
2019-01-27T12:48:40.889Z,28.12
2019-01-27T12:49:40.852Z,28.12
2019-01-27T12:50:40.856Z,28.12
2019-01-27T12:51:40.873Z,28.12
2019-01-27T12:52:40.840Z,28.12
2019-01-27T12:53:40.813Z,28.12
2019-01-27T12:54:40.789Z,33.75
2019-01-27T12:55:40.765Z,22.50
2019-01-27T12:56:40.794Z,22.50
2019-01-27T12:57:40.774Z,16.88
2019-01-27T12:58:40.757Z,22.50
2019-01-27T12:59:40.724Z,16.88
2019-01-27T13:00:40.754Z,11.25
2019-01-27T13:01:40.747Z,11.25
2019-01-27T13:02:40.736Z,5.62
2019-01-27T13:03:40.703Z,5.62
2019-01-27T13:04:40.670Z,11.25
2019-01-27T13:05:40.734Z,11.25
2019-01-27T13:06:41.132Z,11.25
2019-01-27T13:07:40.658Z,11.25
2019-01-27T13:08:40.638Z,11.25
2019-01-27T13:09:40.650Z,11.25